Time;durP1;ratioP1;P1;durP2;ratioP2;P2;SDS_P1;SDS_P2;PMS_P1;PMS_P2;Temp;Humidity;BMP_temperature;BMP_pressure;BME280_temperature;BME280_humidity;BME280_pressure;Samples;Min_cycle;Max_cycle;Signal;HPM_P1;HPM_P2
2022/05/29 00:01:32;;;;;;;;;;;;;;;5.73;41.72;95485.97;5065414;28;20545;-68
2022/05/29 00:03:57;;;;;;;;;;;;;;;5.63;42.05;95491.34;5064707;28;19976;-68
2022/05/29 00:06:22;;;;;;;;;;;;;;;5.59;42.12;95487.34;5065875;28;20476;-68
2022/05/29 00:08:47;;;;;;;;;;;;;;;5.41;42.25;95482.84;5034241;28;19997;-68
2022/05/29 00:11:13;;;;;;;;;;;;;;;5.46;42.38;95487.69;5065570;28;19972;-68
2022/05/29 00:13:38;;;;;;;;;;;;;;;5.29;43.12;95478.75;5063563;28;20387;-68
2022/05/29 00:16:04;;;;;;;;;;;;;;;5.41;43.00;95476.75;5064528;28;20453;-69
2022/05/29 00:18:29;;;;;;;;;;;;;;;5.38;42.63;95477.06;5065689;28;20437;-68
2022/05/29 00:20:56;;;;;;;;;;;;;;;5.38;42.48;95479.69;5063938;28;20372;-68
2022/05/29 00:23:21;;;;;;;;;;;;;;;5.40;42.21;95483.84;5065521;28;20014;-68
2022/05/29 00:25:48;;;;;;;;;;;;;;;5.44;43.68;95474.63;5065095;28;20468;-69
2022/05/29 00:28:13;;;;;;;;;;;;;;;5.20;47.05;95475.19;5064586;28;20000;-68
2022/05/29 00:30:40;;;;;;;;;;;;;;;5.20;45.90;95478.69;5056174;28;19967;-68
2022/05/29 00:33:05;;;;;;;;;;;;;;;4.97;48.60;95465.03;5061683;28;20645;-68
2022/05/29 00:35:31;;;;;;;;;;;;;;;4.99;47.95;95468.34;5064318;28;19993;-68
2022/05/29 00:37:56;;;;;;;;;;;;;;;5.01;46.94;95468.19;5065245;28;20581;-68
2022/05/29 00:40:21;;;;;;;;;;;;;;;4.97;46.04;95471.13;5040414;28;19988;-68
2022/05/29 00:42:46;;;;;;;;;;;;;;;4.98;46.29;95464.03;5058027;28;19968;-68
2022/05/29 00:45:15;;;;;;;;;;;;;;;5.09;45.06;95457.75;5063025;28;19993;-68
2022/05/29 00:47:40;;;;;;;;;;;;;;;5.09;43.70;95455.13;5046781;28;19996;-68
2022/05/29 00:50:07;;;;;;;;;;;;;;;5.01;43.65;95453.19;5064130;28;19969;-68
2022/05/29 00:52:32;;;;;;;;;;;;;;;4.99;44.04;95456.97;5064591;28;20012;-68
2022/05/29 00:54:58;;;;;;;;;;;;;;;4.77;44.05;95453.72;5035114;28;20466;-68
2022/05/29 00:57:25;;;;;;;;;;;;;;;4.58;43.79;95451.03;5078277;28;19992;-68
2022/05/29 00:59:51;;;;;;;;;;;;;;;4.47;44.27;95453.00;5067764;28;20489;-67
2022/05/29 01:02:17;;;;;;;;;;;;;;;4.49;44.26;95457.13;5079949;28;19969;-68
2022/05/29 01:04:45;;;;;;;;;;;;;;;4.24;45.15;95448.06;5060106;28;20448;-68
2022/05/29 01:07:10;;;;;;;;;;;;;;;4.27;44.86;95443.34;5064590;28;19972;-68
2022/05/29 01:09:36;;;;;;;;;;;;;;;4.31;45.33;95438.59;5046294;28;20028;-69
2022/05/29 01:12:12;;;;;;;;;;;;;;;4.10;45.80;95434.34;5041906;28;20519;-68
2022/05/29 01:15:00;;;;;;;;;;;;;;;3.97;45.77;95434.66;5073582;28;19975;-68
2022/05/29 01:17:28;;;;;;;;;;;;;;;4.00;46.06;95438.81;5033174;28;19997;-68
2022/05/29 01:19:57;;;;;;;;;;;;;;;4.05;45.56;95434.78;5063749;28;19985;-68
2022/05/29 01:23:01;;;;;;;;;;;;;;;4.05;45.50;95433.97;5039297;28;19985;-69
2022/05/29 01:25:28;;;;;;;;;;;;;;;4.13;47.10;95436.72;5001112;28;20084;-68
2022/05/29 01:28:12;;;;;;;;;;;;;;;4.01;46.53;95436.03;5000778;28;19980;-68
2022/05/29 01:30:47;;;;;;;;;;;;;;;4.09;47.70;95430.06;5027194;28;20018;-68
2022/05/29 01:33:25;;;;;;;;;;;;;;;4.01;49.64;95437.84;5033342;28;19996;-68
2022/05/29 01:36:02;;;;;;;;;;;;;;;3.65;45.70;95434.00;5063124;28;20071;-69
2022/05/29 01:38:34;;;;;;;;;;;;;;;3.76;49.14;95434.81;5046259;28;20548;-68
2022/05/29 01:41:13;;;;;;;;;;;;;;;3.96;48.01;95424.25;5044841;28;19993;-69
2022/05/29 01:43:38;;;;;;;;;;;;;;;4.08;46.35;95423.13;5079467;28;19965;-69
2022/05/29 01:46:07;;;;;;;;;;;;;;;4.22;45.93;95426.28;5062730;28;20112;-68
2022/05/29 01:48:48;;;;;;;;;;;;;;;4.17;47.17;95424.06;5060345;28;20084;-68
2022/05/29 01:51:14;;;;;;;;;;;;;;;4.21;45.82;95424.63;5062999;28;20295;-68
2022/05/29 01:53:41;;;;;;;;;;;;;;;4.38;45.14;95430.94;5079077;28;19993;-69
2022/05/29 01:56:17;;;;;;;;;;;;;;;4.41;44.84;95426.25;5032249;28;20460;-68
2022/05/29 01:58:44;;;;;;;;;;;;;;;4.39;44.54;95420.25;5042855;28;20063;-68
2022/05/29 02:01:10;;;;;;;;;;;;;;;4.27;44.67;95418.78;5058682;28;19997;-68
2022/05/29 02:03:38;;;;;;;;;;;;;;;4.28;44.76;95417.78;5063660;28;19977;-68
2022/05/29 02:06:09;;;;;;;;;;;;;;;4.25;45.31;95424.19;5032974;28;20345;-68
2022/05/29 02:08:43;;;;;;;;;;;;;;;4.25;45.07;95418.91;5064237;28;19989;-69
2022/05/29 02:11:13;;;;;;;;;;;;;;;4.23;44.67;95420.03;5078495;28;20274;-69
2022/05/29 02:13:45;;;;;;;;;;;;;;;4.13;45.36;95413.00;5075740;28;19985;-69
2022/05/29 02:16:14;;;;;;;;;;;;;;;3.98;46.75;95409.97;5062808;28;20453;-68
2022/05/29 02:18:42;;;;;;;;;;;;;;;3.91;46.65;95414.16;5062313;28;19965;-68
2022/05/29 02:21:12;;;;;;;;;;;;;;;3.54;45.74;95410.44;5050961;28;20516;-68
2022/05/29 02:23:41;;;;;;;;;;;;;;;3.31;47.35;95408.06;5062247;28;20901;-68
2022/05/29 02:26:07;;;;;;;;;;;;;;;3.10;48.36;95413.44;5063105;28;19968;-68
2022/05/29 02:28:33;;;;;;;;;;;;;;;2.91;49.06;95412.41;5043324;28;19993;-68
2022/05/29 02:31:09;;;;;;;;;;;;;;;2.87;49.00;95403.13;5063404;28;20010;-68
2022/05/29 02:33:55;;;;;;;;;;;;;;;3.09;50.15;95399.44;5033602;28;20080;-68
2022/05/29 02:36:20;;;;;;;;;;;;;;;3.14;51.35;95391.94;5049660;28;20408;-68
2022/05/29 02:38:50;;;;;;;;;;;;;;;3.16;50.18;95386.56;5061653;28;19983;-68
2022/05/29 02:41:16;;;;;;;;;;;;;;;2.91;51.10;95394.84;5062775;28;20416;-68
2022/05/29 02:43:46;;;;;;;;;;;;;;;2.68;51.50;95388.16;5033436;28;19969;-68
2022/05/29 02:46:21;;;;;;;;;;;;;;;2.27;51.60;95392.41;5076534;28;19976;-68
2022/05/29 02:48:58;;;;;;;;;;;;;;;2.35;52.34;95385.69;5034021;28;19997;-68
2022/05/29 02:51:26;;;;;;;;;;;;;;;2.52;52.28;95385.03;5062093;28;19976;-68
2022/05/29 02:53:52;;;;;;;;;;;;;;;2.77;51.47;95388.16;5061687;28;19995;-68
2022/05/29 02:56:17;;;;;;;;;;;;;;;2.46;50.71;95385.59;5062495;28;19993;-68
2022/05/29 02:58:43;;;;;;;;;;;;;;;2.56;52.05;95388.25;5054380;28;20030;-68
2022/05/29 03:01:16;;;;;;;;;;;;;;;2.52;51.18;95379.78;5055770;28;20035;-68
2022/05/29 03:03:44;;;;;;;;;;;;;;;2.41;51.45;95374.63;5061243;28;20033;-68
2022/05/29 03:06:17;;;;;;;;;;;;;;;2.16;52.61;95376.75;5057098;28;20404;-68
2022/05/29 03:08:51;;;;;;;;;;;;;;;2.16;53.25;95371.50;5042513;28;19993;-68
2022/05/29 03:11:26;;;;;;;;;;;;;;;2.14;53.68;95374.25;5060844;28;19974;-68
2022/05/29 03:13:54;;;;;;;;;;;;;;;2.06;54.90;95373.22;5060829;28;19988;-69
2022/05/29 03:16:34;;;;;;;;;;;;;;;2.05;54.39;95375.03;5038482;28;19997;-68
2022/05/29 03:19:18;;;;;;;;;;;;;;;1.94;54.50;95375.13;5072624;28;20348;-68
2022/05/29 03:21:46;;;;;;;;;;;;;;;1.84;54.69;95375.06;5061294;28;19992;-68
2022/05/29 03:24:15;;;;;;;;;;;;;;;1.72;55.29;95379.53;5077679;28;19984;-68
2022/05/29 03:26:45;;;;;;;;;;;;;;;1.68;55.25;95360.59;5062100;28;20004;-68
2022/05/29 03:29:25;;;;;;;;;;;;;;;1.66;55.29;95364.31;5062265;28;20018;-68
2022/05/29 03:31:50;;;;;;;;;;;;;;;1.58;55.33;95373.66;5043644;28;20230;-68
2022/05/29 03:34:16;;;;;;;;;;;;;;;1.45;55.77;95373.81;5044617;28;20111;-68
2022/05/29 03:36:45;;;;;;;;;;;;;;;1.36;56.79;95370.16;5061227;28;20472;-68
2022/05/29 03:39:10;;;;;;;;;;;;;;;1.50;55.97;95369.00;5062824;28;19965;-68
2022/05/29 03:41:43;;;;;;;;;;;;;;;1.58;55.74;95355.28;5061544;28;19993;-68
2022/05/29 03:44:08;;;;;;;;;;;;;;;1.67;54.61;95360.72;5077113;28;20639;-68
2022/05/29 03:46:33;;;;;;;;;;;;;;;1.68;54.94;95359.75;5061701;28;20012;-68
2022/05/29 03:48:58;;;;;;;;;;;;;;;1.74;54.21;95364.50;5062115;28;19992;-68
2022/05/29 03:51:24;;;;;;;;;;;;;;;1.81;54.25;95363.00;5061489;28;20430;-68
2022/05/29 03:53:49;;;;;;;;;;;;;;;1.82;54.41;95355.97;5061326;28;19992;-69
2022/05/29 03:56:14;;;;;;;;;;;;;;;1.83;54.49;95366.34;5065194;28;20075;-68
2022/05/29 03:58:39;;;;;;;;;;;;;;;1.79;53.96;95362.31;5060993;28;20003;-69
2022/05/29 04:01:05;;;;;;;;;;;;;;;1.93;54.12;95353.25;5063949;28;19988;-69
2022/05/29 04:03:30;;;;;;;;;;;;;;;1.95;53.81;95355.75;5065854;28;20012;-68
2022/05/29 04:05:55;;;;;;;;;;;;;;;2.08;53.33;95359.00;5064715;28;19993;-69
2022/05/29 04:13:49;;;;;;;;;;;;;;;2.16;53.20;95362.75;5064754;28;20359;-68
2022/05/29 04:16:14;;;;;;;;;;;;;;;2.06;54.40;95363.56;5080603;28;20652;-68
2022/05/29 04:18:39;;;;;;;;;;;;;;;2.08;54.45;95366.88;5065589;28;19965;-69
2022/05/29 04:21:05;;;;;;;;;;;;;;;2.10;53.99;95353.63;5063824;28;20004;-69
2022/05/29 04:23:30;;;;;;;;;;;;;;;2.26;54.72;95358.41;5065902;28;20352;-69
2022/05/29 04:25:56;;;;;;;;;;;;;;;2.45;53.48;95356.81;5064444;28;20036;-69
2022/05/29 04:28:22;;;;;;;;;;;;;;;2.42;55.22;95351.81;5065050;28;20482;-69
2022/05/29 04:30:47;;;;;;;;;;;;;;;2.51;53.41;95358.88;5064283;28;20004;-69
2022/05/29 04:33:13;;;;;;;;;;;;;;;2.68;53.23;95352.16;5064851;28;20035;-68
2022/05/29 04:35:42;;;;;;;;;;;;;;;2.68;54.45;95359.22;5064026;28;19985;-69
2022/05/29 04:38:07;;;;;;;;;;;;;;;2.76;54.70;95354.13;5052201;28;20063;-68
2022/05/29 04:40:32;;;;;;;;;;;;;;;2.98;53.93;95352.19;5052461;28;20199;-68
2022/05/29 04:42:58;;;;;;;;;;;;;;;3.24;53.51;95359.56;5051913;28;20019;-69
2022/05/29 04:45:23;;;;;;;;;;;;;;;3.26;52.92;95363.72;5064107;28;19988;-69
2022/05/29 04:47:48;;;;;;;;;;;;;;;3.35;52.37;95359.44;5064878;28;20449;-68
2022/05/29 04:50:14;;;;;;;;;;;;;;;3.91;52.33;95348.31;5064439;28;19988;-69
2022/05/29 04:52:39;;;;;;;;;;;;;;;3.90;51.70;95350.09;5064422;28;20484;-69
2022/05/29 04:55:04;;;;;;;;;;;;;;;4.20;51.01;95342.09;5063980;28;19965;-69
2022/05/29 04:57:30;;;;;;;;;;;;;;;3.82;52.30;95339.44;5064785;28;20032;-69
2022/05/29 04:59:55;;;;;;;;;;;;;;;3.70;52.76;95341.41;5055631;28;20000;-68
2022/05/29 05:02:20;;;;;;;;;;;;;;;3.74;52.85;95344.59;5062971;28;20000;-69
2022/05/29 05:04:45;;;;;;;;;;;;;;;3.92;52.33;95339.44;5063848;28;20069;-69
2022/05/29 05:07:11;;;;;;;;;;;;;;;3.55;52.64;95336.56;5064499;28;19977;-68
2022/05/29 05:09:36;;;;;;;;;;;;;;;3.80;52.82;95333.50;5063708;28;20024;-68
2022/05/29 05:12:01;;;;;;;;;;;;;;;4.17;53.31;95335.31;5064462;28;19991;-68
2022/05/29 05:14:26;;;;;;;;;;;;;;;4.03;51.82;95334.00;5055612;28;20090;-68
2022/05/29 05:16:53;;;;;;;;;;;;;;;4.73;50.96;95323.94;5063277;28;20004;-68
2022/05/29 05:19:18;;;;;;;;;;;;;;;4.66;50.29;95323.69;5063693;28;19969;-68
2022/05/29 05:21:43;;;;;;;;;;;;;;;4.51;51.80;95323.38;5063758;28;20536;-69
2022/05/29 05:24:09;;;;;;;;;;;;;;;4.91;50.22;95317.84;5045566;28;20011;-68
2022/05/29 05:26:34;;;;;;;;;;;;;;;5.11;48.74;95320.38;5058410;28;19973;-68
2022/05/29 05:28:59;;;;;;;;;;;;;;;5.27;48.05;95319.72;5061889;28;20049;-69
2022/05/29 05:31:25;;;;;;;;;;;;;;;5.32;48.15;95314.81;5064061;28;19977;-69
2022/05/29 05:33:50;;;;;;;;;;;;;;;5.12;49.08;95322.88;5063864;28;20008;-69
2022/05/29 05:36:15;;;;;;;;;;;;;;;4.94;50.22;95318.38;5063897;28;19993;-68
2022/05/29 05:38:41;;;;;;;;;;;;;;;5.42;48.04;95315.56;5064381;28;20479;-69
2022/05/29 05:41:10;;;;;;;;;;;;;;;5.04;50.14;95322.78;5063386;28;19989;-69
2022/05/29 05:43:35;;;;;;;;;;;;;;;5.33;49.00;95316.44;5064093;28;20433;-69
2022/05/29 05:46:00;;;;;;;;;;;;;;;5.42;49.25;95312.91;5063291;28;20022;-68
2022/05/29 05:48:29;;;;;;;;;;;;;;;5.38;49.82;95316.00;5054030;28;20001;-69
2022/05/29 05:50:55;;;;;;;;;;;;;;;5.48;49.31;95309.63;5063808;28;20427;-69
2022/05/29 05:53:20;;;;;;;;;;;;;;;5.19;48.53;95312.53;5062883;28;19997;-69
2022/05/29 05:55:45;;;;;;;;;;;;;;;5.02;50.90;95312.38;5061273;28;19989;-68
2022/05/29 05:58:11;;;;;;;;;;;;;;;4.77;50.77;95309.50;5050858;28;20014;-68
2022/05/29 06:00:36;;;;;;;;;;;;;;;5.06;50.55;95303.19;5060238;28;20143;-69
2022/05/29 06:03:01;;;;;;;;;;;;;;;5.40;49.82;95295.53;5064122;28;20311;-69
2022/05/29 06:05:27;;;;;;;;;;;;;;;5.69;50.25;95299.72;5061914;28;19996;-69
2022/05/29 06:07:52;;;;;;;;;;;;;;;5.78;47.94;95295.34;5053497;28;19969;-69
2022/05/29 06:10:18;;;;;;;;;;;;;;;5.95;46.27;95299.72;5057656;28;20326;-69
2022/05/29 06:12:43;;;;;;;;;;;;;;;5.79;47.64;95302.25;5062130;28;20079;-68
2022/05/29 06:15:08;;;;;;;;;;;;;;;6.31;47.45;95297.91;5063791;28;19969;-69
2022/05/29 06:17:34;;;;;;;;;;;;;;;6.73;44.95;95299.72;5062412;28;20062;-68
2022/05/29 06:19:59;;;;;;;;;;;;;;;7.04;45.38;95295.63;5062943;28;19995;-69
2022/05/29 06:22:25;;;;;;;;;;;;;;;7.15;45.58;95294.50;5053131;28;19987;-69
2022/05/29 06:24:50;;;;;;;;;;;;;;;7.40;44.20;95294.50;5047875;28;20384;-68
2022/05/29 06:27:15;;;;;;;;;;;;;;;7.69;43.53;95298.47;5047599;28;20041;-69
2022/05/29 06:29:41;;;;;;;;;;;;;;;8.08;43.58;95296.94;5061130;28;20036;-69
2022/05/29 06:32:08;;;;;;;;;;;;;;;8.39;42.44;95296.16;5047003;28;19989;-69
2022/05/29 06:34:34;;;;;;;;;;;;;;;8.64;41.68;95296.03;5058814;28;20036;-69
2022/05/29 06:37:02;;;;;;;;;;;;;;;8.69;40.59;95295.53;5062016;28;20435;-69
2022/05/29 06:39:29;;;;;;;;;;;;;;;8.09;41.99;95292.47;5062454;28;20284;-69
2022/05/29 06:41:54;;;;;;;;;;;;;;;7.66;44.02;95296.16;5049894;28;20453;-69
2022/05/29 06:44:20;;;;;;;;;;;;;;;6.87;45.23;95297.47;5062812;28;19989;-69
2022/05/29 06:46:45;;;;;;;;;;;;;;;7.11;44.71;95299.28;5062610;28;19977;-69
2022/05/29 06:49:10;;;;;;;;;;;;;;;6.22;45.68;95304.97;5062554;28;20011;-69
2022/05/29 06:51:35;;;;;;;;;;;;;;;5.13;48.11;95306.06;5051942;28;20433;-69
2022/05/29 06:54:02;;;;;;;;;;;;;;;5.21;48.21;95306.13;5061144;28;20099;-69
2022/05/29 06:56:27;;;;;;;;;;;;;;;4.91;49.33;95302.88;5060998;28;20000;-69
2022/05/29 06:58:54;;;;;;;;;;;;;;;5.70;48.36;95304.84;5057746;28;19991;-69
2022/05/29 07:07:06;;;;;;;;;;;;;;;5.51;48.31;95302.41;4973831;28;19969;-69
2022/05/29 07:09:32;;;;;;;;;;;;;;;5.38;48.28;95308.91;5037122;28;20163;-69
2022/05/29 07:12:04;;;;;;;;;;;;;;;4.86;49.24;95309.56;5058485;28;19995;-69
2022/05/29 07:14:30;;;;;;;;;;;;;;;5.37;47.77;95312.53;5041116;28;19968;-69
2022/05/29 07:16:55;;;;;;;;;;;;;;;5.54;47.26;95307.38;5058329;28;20341;-69
2022/05/29 07:19:24;;;;;;;;;;;;;;;5.94;45.96;95302.50;5059087;28;19976;-69
2022/05/29 07:21:49;;;;;;;;;;;;;;;5.99;47.24;95305.53;5058645;28;20513;-69
2022/05/29 07:24:15;;;;;;;;;;;;;;;6.76;44.81;95303.88;5058705;28;20072;-64
2022/05/29 07:26:40;;;;;;;;;;;;;;;6.73;44.73;95304.19;5058799;28;20080;-70
2022/05/29 07:29:05;;;;;;;;;;;;;;;6.44;47.26;95298.28;5059757;28;20062;-70
2022/05/29 07:31:30;;;;;;;;;;;;;;;6.58;46.69;95301.34;5062424;28;20100;-70
2022/05/29 07:33:56;;;;;;;;;;;;;;;6.73;44.65;95294.44;5062515;28;20167;-70
2022/05/29 07:36:22;;;;;;;;;;;;;;;6.46;45.34;95292.84;5062230;28;20048;-69
2022/05/29 07:38:47;;;;;;;;;;;;;;;5.84;47.70;95292.03;5062911;28;20067;-69
2022/05/29 07:43:56;;;;;;;;;;;;;;;5.95;46.55;95294.44;5062048;28;20274;-69
2022/05/29 07:46:21;;;;;;;;;;;;;;;6.33;45.06;95296.75;5062801;28;19976;-69
2022/05/29 07:48:47;;;;;;;;;;;;;;;6.54;45.49;95292.91;5062045;28;20004;-68
2022/05/29 07:51:12;;;;;;;;;;;;;;;6.30;46.73;95298.91;5062579;28;19987;-69
2022/05/29 07:53:37;;;;;;;;;;;;;;;6.77;43.70;95293.13;5061874;28;19993;-69
2022/05/29 07:56:03;;;;;;;;;;;;;;;6.45;43.77;95293.81;5062102;28;19996;-68
2022/05/29 07:58:28;;;;;;;;;;;;;;;6.50;43.98;95291.56;5057595;28;19977;-70
2022/05/29 08:00:53;;;;;;;;;;;;;;;6.22;44.85;95295.22;5061196;28;20185;-69
2022/05/29 08:03:19;;;;;;;;;;;;;;;6.66;44.25;95293.41;5061813;28;19969;-69
2022/05/29 08:05:45;;;;;;;;;;;;;;;7.06;41.66;95287.53;5061305;28;19999;-68
2022/05/29 08:08:11;;;;;;;;;;;;;;;7.99;40.67;95287.34;5048012;28;19993;-70
2022/05/29 08:10:37;;;;;;;;;;;;;;;7.14;41.39;95290.19;5062272;28;20524;-69
2022/05/29 08:13:02;;;;;;;;;;;;;;;6.69;44.10;95294.91;5042248;28;20053;-69
2022/05/29 08:15:29;;;;;;;;;;;;;;;6.24;45.65;95292.44;5049625;28;20257;-69
2022/05/29 08:17:54;;;;;;;;;;;;;;;5.94;47.20;95294.56;5061792;28;20656;-69
2022/05/29 08:20:19;;;;;;;;;;;;;;;6.22;45.47;95297.88;5061491;28;20182;-69
2022/05/29 08:22:45;;;;;;;;;;;;;;;6.17;43.69;95297.53;5061935;28;20001;-69
2022/05/29 08:30:37;;;;;;;;;;;;;;;6.86;43.88;95293.97;5061661;28;19991;-69
2022/05/29 08:33:13;;;;;;;;;;;;;;;6.73;43.22;95290.94;5061133;28;20453;-69
2022/05/29 08:35:39;;;;;;;;;;;;;;;5.95;44.18;95291.78;5061096;28;19992;-70
2022/05/29 08:38:04;;;;;;;;;;;;;;;6.04;44.20;95295.31;5061638;28;19969;-70
2022/05/29 08:40:30;;;;;;;;;;;;;;;6.56;45.14;95290.91;5060270;28;19993;-69
2022/05/29 08:42:55;;;;;;;;;;;;;;;6.17;43.63;95297.53;5042935;28;19972;-70
2022/05/29 08:45:20;;;;;;;;;;;;;;;6.68;44.34;95294.09;5042843;28;19993;-69
2022/05/29 08:47:46;;;;;;;;;;;;;;;6.63;43.39;95289.28;5042938;28;20046;-70
2022/05/29 08:50:24;;;;;;;;;;;;;;;7.10;45.14;95284.41;5061554;28;19975;-69
2022/05/29 08:52:49;;;;;;;;;;;;;;;7.72;42.99;95295.47;5047138;28;19985;-69
2022/05/29 08:55:35;;;;;;;;;;;;;;;7.12;43.26;95292.19;5053207;28;20034;-70
2022/05/29 08:58:00;;;;;;;;;;;;;;;6.97;43.82;95292.81;5058883;28;20489;-69
2022/05/29 09:00:38;;;;;;;;;;;;;;;6.54;45.94;95292.91;5056868;28;19993;-69
2022/05/29 09:03:26;;;;;;;;;;;;;;;6.86;45.17;95295.78;5056733;28;20400;-69
2022/05/29 09:05:52;;;;;;;;;;;;;;;6.90;43.40;95297.09;5030488;28;20473;-69
2022/05/29 09:08:21;;;;;;;;;;;;;;;6.70;44.22;95296.59;5060719;28;20512;-68
2022/05/29 09:10:48;;;;;;;;;;;;;;;6.93;44.56;95301.28;5042370;28;20395;-69
2022/05/29 09:13:17;;;;;;;;;;;;;;;7.27;44.41;95287.91;5042356;28;20046;-68
2022/05/29 09:15:47;;;;;;;;;;;;;;;7.71;43.09;95293.81;5042197;28;20498;-68
2022/05/29 09:18:21;;;;;;;;;;;;;;;7.84;41.19;95298.66;5060570;28;19973;-69
2022/05/29 09:21:03;;;;;;;;;;;;;;;8.04;40.65;95282.38;5056171;28;19996;-68
2022/05/29 09:23:30;;;;;;;;;;;;;;;8.20;41.61;95283.31;5054930;28;20022;-69
2022/05/29 09:25:55;;;;;;;;;;;;;;;9.32;40.00;95276.88;5056973;28;19995;-69
2022/05/29 09:28:32;;;;;;;;;;;;;;;10.01;36.64;95282.25;5061740;28;20423;-69
2022/05/29 09:31:05;;;;;;;;;;;;;;;10.42;36.63;95275.66;5060256;28;19984;-69
2022/05/29 09:33:31;;;;;;;;;;;;;;;10.92;35.21;95271.53;5059512;28;19985;-69
2022/05/29 09:36:03;;;;;;;;;;;;;;;9.80;36.49;95289.09;5059834;28;20009;-69
2022/05/29 09:38:30;;;;;;;;;;;;;;;7.72;43.91;95297.31;5035627;28;19971;-70
2022/05/29 09:40:55;;;;;;;;;;;;;;;7.25;44.76;95303.09;5057402;28;20005;-69
2022/05/29 09:43:23;;;;;;;;;;;;;;;6.20;48.98;95305.16;5055460;28;20198;-70
2022/05/29 09:45:48;;;;;;;;;;;;;;;5.64;49.09;95318.66;5060398;28;20202;-70
2022/05/29 09:51:14;;;;;;;;;;;;;;;5.66;50.10;95311.44;5042869;28;20293;-70
2022/05/29 09:53:50;;;;;;;;;;;;;;;5.60;50.78;95302.31;5052767;28;19993;-69
2022/05/29 09:56:22;;;;;;;;;;;;;;;6.12;49.21;95295.34;5059241;28;20083;-70
2022/05/29 09:58:48;;;;;;;;;;;;;;;6.43;49.03;95293.16;5051284;28;19968;-70
2022/05/29 10:01:27;;;;;;;;;;;;;;;7.20;48.42;95299.28;5066291;28;20071;-69
2022/05/29 10:03:53;;;;;;;;;;;;;;;6.61;48.79;95296.56;5059135;28;19972;-70
2022/05/29 10:06:21;;;;;;;;;;;;;;;7.16;48.01;95282.94;5059548;28;20404;-70
2022/05/29 10:08:46;;;;;;;;;;;;;;;7.61;46.94;95293.16;5059261;28;20436;-70
2022/05/29 10:11:31;;;;;;;;;;;;;;;7.75;44.81;95281.91;5059337;28;20020;-70
2022/05/29 10:13:56;;;;;;;;;;;;;;;8.69;44.33;95267.19;5059009;28;20460;-69
2022/05/29 10:16:29;;;;;;;;;;;;;;;8.37;41.47;95271.63;5041143;28;20007;-70
2022/05/29 10:18:54;;;;;;;;;;;;;;;8.67;41.97;95263.06;5059570;28;20515;-70
2022/05/29 10:21:23;;;;;;;;;;;;;;;9.55;39.18;95262.75;5058982;28;20054;-69
2022/05/29 10:23:53;;;;;;;;;;;;;;;9.89;36.79;95270.41;5058198;28;19975;-69
2022/05/29 10:26:21;;;;;;;;;;;;;;;9.61;38.33;95260.38;5041409;28;20046;-69
2022/05/29 10:28:46;;;;;;;;;;;;;;;9.82;36.99;95257.84;5058998;28;20061;-69
2022/05/29 10:31:13;;;;;;;;;;;;;;;10.43;35.79;95250.69;5041131;28;20592;-68
2022/05/29 10:33:38;;;;;;;;;;;;;;;10.92;34.33;95245.72;5020695;28;20033;-68
2022/05/29 10:36:06;;;;;;;;;;;;;;;11.08;37.53;95243.81;5025549;28;20001;-69
2022/05/29 10:38:31;;;;;;;;;;;;;;;11.41;34.90;95251.31;5038893;28;19969;-69
2022/05/29 10:40:58;;;;;;;;;;;;;;;11.60;36.22;95247.13;5038395;28;19994;-70
2022/05/29 10:43:33;;;;;;;;;;;;;;;10.38;37.67;95252.25;5038694;28;20369;-69
2022/05/29 10:46:05;;;;;;;;;;;;;;;10.33;39.13;95248.31;5038285;28;20019;-69
2022/05/29 10:48:40;;;;;;;;;;;;;;;10.56;37.70;95238.56;5034399;28;20099;-70
2022/05/29 10:51:20;;;;;;;;;;;;;;;11.28;35.52;95238.69;5030449;28;20528;-70
2022/05/29 10:53:45;;;;;;;;;;;;;;;12.25;33.56;95231.97;5034180;28;19994;-70
2022/05/29 10:56:19;;;;;;;;;;;;;;;13.02;34.29;95220.34;5038748;28;20003;-69
2022/05/29 10:58:54;;;;;;;;;;;;;;;13.54;32.76;95211.72;5032035;28;19975;-70
2022/05/29 11:04:40;;;;;;;;;;;;;;;12.43;34.01;95228.78;5029719;28;20011;-70
2022/05/29 11:07:28;;;;;;;;;;;;;;;12.27;32.87;95225.41;5043146;28;19972;-69
2022/05/29 11:09:53;;;;;;;;;;;;;;;11.43;36.55;95225.31;5005792;28;20108;-69
2022/05/29 11:12:28;;;;;;;;;;;;;;;10.79;36.25;95219.78;5037171;28;20533;-70
2022/05/29 11:15:02;;;;;;;;;;;;;;;10.91;37.98;95216.63;5040537;28;20247;-70
2022/05/29 11:17:28;;;;;;;;;;;;;;;10.43;38.26;95217.94;5039730;28;20040;-69
2022/05/29 11:20:01;;;;;;;;;;;;;;;10.66;37.25;95214.28;5041481;28;20479;-69
2022/05/29 11:22:32;;;;;;;;;;;;;;;11.15;35.75;95212.75;5040704;28;20485;-70
2022/05/29 11:25:03;;;;;;;;;;;;;;;12.04;32.13;95207.03;5042716;28;20488;-70
2022/05/29 11:27:47;;;;;;;;;;;;;;;12.04;32.38;95201.69;5033663;28;19973;-70
2022/05/29 11:30:27;;;;;;;;;;;;;;;12.51;31.03;95193.06;5037589;28;20076;-70
2022/05/29 11:32:56;;;;;;;;;;;;;;;12.09;33.13;95196.59;5041810;28;20234;-70
2022/05/29 11:35:35;;;;;;;;;;;;;;;10.91;35.22;95200.63;5046949;28;20040;-70
2022/05/29 11:38:06;;;;;;;;;;;;;;;10.88;36.01;95202.66;5042533;28;20412;-70
2022/05/29 11:40:33;;;;;;;;;;;;;;;10.59;33.35;95198.25;5068689;28;20739;-70
2022/05/29 11:43:19;;;;;;;;;;;;;;;10.31;34.32;95197.16;5053794;28;19968;-70
2022/05/29 11:51:40;;;;;;;;;;;;;;;10.70;33.39;95197.75;5042154;28;19979;-69
2022/05/29 11:54:07;;;;;;;;;;;;;;;10.17;38.40;95195.34;5044133;28;20324;-68
2022/05/29 11:56:39;;;;;;;;;;;;;;;10.27;37.04;95198.50;5032407;28;20009;-70
2022/05/29 11:59:20;;;;;;;;;;;;;;;9.14;37.24;95194.88;5052264;28;19973;-70
2022/05/29 12:01:47;;;;;;;;;;;;;;;8.97;38.35;95194.16;5050506;28;19993;-67
2022/05/29 12:04:19;;;;;;;;;;;;;;;9.60;36.97;95201.09;5062615;28;20015;-68
2022/05/29 12:06:45;;;;;;;;;;;;;;;9.08;37.42;95198.25;5056974;28;20408;-68
2022/05/29 12:09:11;;;;;;;;;;;;;;;8.43;40.69;95204.63;5075232;28;20528;-68
2022/05/29 12:11:49;;;;;;;;;;;;;;;8.71;41.00;95203.31;5066812;28;20089;-68
2022/05/29 12:14:22;;;;;;;;;;;;;;;8.69;43.21;95210.59;5053866;28;19989;-68
2022/05/29 12:16:48;;;;;;;;;;;;;;;9.28;44.99;95193.25;5067910;28;20378;-68
2022/05/29 12:19:17;;;;;;;;;;;;;;;9.82;41.15;95191.38;5065043;28;19977;-68
2022/05/29 12:21:47;;;;;;;;;;;;;;;10.61;41.58;95175.75;5071263;28;20019;-69
2022/05/29 12:24:15;;;;;;;;;;;;;;;10.98;39.17;95185.53;5058904;28;20014;-68
2022/05/29 12:26:45;;;;;;;;;;;;;;;11.30;38.44;95178.03;5077268;28;19969;-67
2022/05/29 12:29:12;;;;;;;;;;;;;;;11.94;36.61;95179.88;5042284;28;20012;-68
2022/05/29 12:31:44;;;;;;;;;;;;;;;12.55;35.79;95167.63;5059982;28;19976;-69
2022/05/29 12:34:16;;;;;;;;;;;;;;;13.15;31.30;95163.38;5028725;28;20051;-69
2022/05/29 12:37:00;;;;;;;;;;;;;;;12.99;31.77;95168.09;5045406;28;20083;-69
2022/05/29 12:39:49;;;;;;;;;;;;;;;13.74;31.96;95155.53;5049713;28;19994;-69
2022/05/29 12:42:17;;;;;;;;;;;;;;;14.39;32.11;95159.25;5062008;28;20044;-69
2022/05/29 12:44:54;;;;;;;;;;;;;;;14.16;31.88;95162.41;5049666;28;19996;-69
2022/05/29 12:47:38;;;;;;;;;;;;;;;13.60;30.26;95168.09;5041595;28;20390;-68
2022/05/29 12:50:13;;;;;;;;;;;;;;;14.12;29.13;95166.56;5056756;28;19989;-68
2022/05/29 12:52:57;;;;;;;;;;;;;;;14.13;28.51;95163.66;5060781;28;20564;-69
2022/05/29 12:55:45;;;;;;;;;;;;;;;13.02;31.54;95173.06;5056670;28;19968;-69
2022/05/29 12:58:29;;;;;;;;;;;;;;;12.57;32.12;95170.09;5046151;28;20531;-69
2022/05/29 13:01:07;;;;;;;;;;;;;;;10.06;37.54;95199.25;5053809;28;20475;-69
2022/05/29 13:03:51;;;;;;;;;;;;;;;8.14;40.56;95207.91;5062181;28;19979;-70
2022/05/29 13:06:34;;;;;;;;;;;;;;;7.21;45.53;95197.72;5056997;28;20035;-68
2022/05/29 13:09:03;;;;;;;;;;;;;;;6.72;47.27;95202.00;5061862;28;20182;-68
2022/05/29 13:11:33;;;;;;;;;;;;;;;6.36;47.94;95206.53;5059112;28;20027;-68
2022/05/29 13:13:59;;;;;;;;;;;;;;;6.47;47.62;95215.97;5056063;28;19992;-68
2022/05/29 13:16:25;;;;;;;;;;;;;;;6.18;49.28;95213.75;5061563;28;20582;-68
2022/05/29 13:19:13;;;;;;;;;;;;;;;5.84;52.96;95223.34;5061423;28;20295;-67
2022/05/29 13:21:57;;;;;;;;;;;;;;;6.23;52.13;95208.81;5051262;28;20471;-66
2022/05/29 13:24:23;;;;;;;;;;;;;;;6.61;51.22;95203.16;5060615;28;20046;-67
2022/05/29 13:27:08;;;;;;;;;;;;;;;6.81;50.06;95211.63;5067125;28;19989;-67
2022/05/29 13:29:38;;;;;;;;;;;;;;;7.64;47.92;95202.75;5059043;28;20074;-67
2022/05/29 13:32:13;;;;;;;;;;;;;;;8.74;45.92;95192.31;5053442;28;19988;-68
2022/05/29 13:34:38;;;;;;;;;;;;;;;9.29;44.13;95189.56;5068707;28;20004;-68
2022/05/29 13:37:05;;;;;;;;;;;;;;;9.71;42.86;95182.03;5063343;28;20314;-68